sensor_id;sensor_type;location;lat;lon;timestamp;P1;durP1;ratioP1;P2;durP2;ratioP2
34988;SDS011;21192;40.182;44.516;2023-03-19T00:00:04;12.50;;;3.90;;
34988;SDS011;21192;40.182;44.516;2023-03-19T00:02:32;11.10;;;3.60;;
34988;SDS011;21192;40.182;44.516;2023-03-19T00:04:58;8.80;;;3.83;;
34988;SDS011;21192;40.182;44.516;2023-03-19T00:07:24;10.20;;;3.67;;
34988;SDS011;21192;40.182;44.516;2023-03-19T00:09:50;11.15;;;4.15;;
34988;SDS011;21192;40.182;44.516;2023-03-19T00:12:16;9.82;;;4.20;;
34988;SDS011;21192;40.182;44.516;2023-03-19T00:14:42;11.00;;;3.60;;
34988;SDS011;21192;40.182;44.516;2023-03-19T00:17:08;9.30;;;3.70;;
34988;SDS011;21192;40.182;44.516;2023-03-19T00:19:34;8.73;;;3.60;;
34988;SDS011;21192;40.182;44.516;2023-03-19T00:22:00;7.07;;;2.92;;
34988;SDS011;21192;40.182;44.516;2023-03-19T00:24:26;8.15;;;3.03;;
34988;SDS011;21192;40.182;44.516;2023-03-19T00:26:53;6.50;;;2.75;;
34988;SDS011;21192;40.182;44.516;2023-03-19T00:29:18;9.35;;;3.42;;
34988;SDS011;21192;40.182;44.516;2023-03-19T00:31:45;7.10;;;3.22;;
34988;SDS011;21192;40.182;44.516;2023-03-19T00:34:11;8.70;;;3.38;;
34988;SDS011;21192;40.182;44.516;2023-03-19T00:36:37;7.00;;;3.13;;
34988;SDS011;21192;40.182;44.516;2023-03-19T00:39:04;5.55;;;3.28;;
34988;SDS011;21192;40.182;44.516;2023-03-19T00:41:30;10.23;;;4.00;;
34988;SDS011;21192;40.182;44.516;2023-03-19T00:43:56;11.20;;;3.83;;
34988;SDS011;21192;40.182;44.516;2023-03-19T00:46:23;11.30;;;3.60;;
34988;SDS011;21192;40.182;44.516;2023-03-19T00:48:49;6.60;;;3.13;;
34988;SDS011;21192;40.182;44.516;2023-03-19T00:51:19;9.10;;;2.92;;
34988;SDS011;21192;40.182;44.516;2023-03-19T00:53:46;12.50;;;3.33;;
34988;SDS011;21192;40.182;44.516;2023-03-19T00:56:12;8.88;;;3.35;;
34988;SDS011;21192;40.182;44.516;2023-03-19T00:58:39;9.57;;;3.42;;
34988;SDS011;21192;40.182;44.516;2023-03-19T01:01:06;9.07;;;3.30;;
34988;SDS011;21192;40.182;44.516;2023-03-19T01:03:33;8.65;;;3.40;;
34988;SDS011;21192;40.182;44.516;2023-03-19T01:05:59;7.43;;;2.70;;
34988;SDS011;21192;40.182;44.516;2023-03-19T01:08:25;8.88;;;3.30;;
34988;SDS011;21192;40.182;44.516;2023-03-19T01:10:51;9.30;;;2.85;;
34988;SDS011;21192;40.182;44.516;2023-03-19T01:13:18;9.30;;;3.28;;
34988;SDS011;21192;40.182;44.516;2023-03-19T01:15:44;7.38;;;3.05;;
34988;SDS011;21192;40.182;44.516;2023-03-19T01:18:10;7.45;;;2.92;;
34988;SDS011;21192;40.182;44.516;2023-03-19T01:20:37;10.68;;;3.50;;
34988;SDS011;21192;40.182;44.516;2023-03-19T01:23:04;6.82;;;3.10;;
34988;SDS011;21192;40.182;44.516;2023-03-19T01:25:31;10.27;;;3.20;;
34988;SDS011;21192;40.182;44.516;2023-03-19T01:27:57;8.02;;;3.45;;
34988;SDS011;21192;40.182;44.516;2023-03-19T01:30:23;8.27;;;3.42;;
34988;SDS011;21192;40.182;44.516;2023-03-19T01:32:49;7.63;;;3.45;;
34988;SDS011;21192;40.182;44.516;2023-03-19T01:35:15;10.75;;;3.75;;
34988;SDS011;21192;40.182;44.516;2023-03-19T01:37:41;7.85;;;3.58;;
34988;SDS011;21192;40.182;44.516;2023-03-19T01:40:08;8.70;;;3.80;;
34988;SDS011;21192;40.182;44.516;2023-03-19T01:45:41;9.82;;;3.17;;
34988;SDS011;21192;40.182;44.516;2023-03-19T01:48:16;7.82;;;3.67;;
34988;SDS011;21192;40.182;44.516;2023-03-19T01:50:55;9.70;;;3.55;;
34988;SDS011;21192;40.182;44.516;2023-03-19T01:53:23;9.60;;;3.65;;
34988;SDS011;21192;40.182;44.516;2023-03-19T01:55:53;9.93;;;3.53;;
34988;SDS011;21192;40.182;44.516;2023-03-19T01:58:22;10.15;;;3.92;;
34988;SDS011;21192;40.182;44.516;2023-03-19T02:00:48;9.35;;;3.75;;
34988;SDS011;21192;40.182;44.516;2023-03-19T02:03:14;11.45;;;4.03;;
34988;SDS011;21192;40.182;44.516;2023-03-19T02:05:40;13.38;;;6.82;;
34988;SDS011;21192;40.182;44.516;2023-03-19T02:08:10;8.55;;;3.60;;
34988;SDS011;21192;40.182;44.516;2023-03-19T02:10:39;9.60;;;3.05;;
34988;SDS011;21192;40.182;44.516;2023-03-19T02:13:06;9.52;;;3.30;;
34988;SDS011;21192;40.182;44.516;2023-03-19T02:15:32;9.07;;;3.60;;
34988;SDS011;21192;40.182;44.516;2023-03-19T02:17:58;8.05;;;4.13;;
34988;SDS011;21192;40.182;44.516;2023-03-19T02:25:32;12.45;;;6.20;;
34988;SDS011;21192;40.182;44.516;2023-03-19T02:28:06;7.90;;;4.35;;
34988;SDS011;21192;40.182;44.516;2023-03-19T02:30:34;10.13;;;4.45;;
34988;SDS011;21192;40.182;44.516;2023-03-19T02:33:00;7.20;;;3.53;;
34988;SDS011;21192;40.182;44.516;2023-03-19T02:35:26;9.48;;;3.60;;
34988;SDS011;21192;40.182;44.516;2023-03-19T02:37:55;6.65;;;3.30;;
34988;SDS011;21192;40.182;44.516;2023-03-19T02:40:25;8.00;;;3.60;;
34988;SDS011;21192;40.182;44.516;2023-03-19T02:42:55;8.57;;;3.28;;
34988;SDS011;21192;40.182;44.516;2023-03-19T02:45:21;7.47;;;4.07;;
34988;SDS011;21192;40.182;44.516;2023-03-19T02:47:52;6.80;;;3.75;;
34988;SDS011;21192;40.182;44.516;2023-03-19T02:50:17;13.40;;;3.92;;
34988;SDS011;21192;40.182;44.516;2023-03-19T02:52:43;7.25;;;3.30;;
34988;SDS011;21192;40.182;44.516;2023-03-19T02:55:09;7.55;;;3.83;;
34988;SDS011;21192;40.182;44.516;2023-03-19T02:57:35;10.60;;;3.92;;
34988;SDS011;21192;40.182;44.516;2023-03-19T03:00:01;7.63;;;3.92;;
34988;SDS011;21192;40.182;44.516;2023-03-19T03:02:29;8.73;;;3.97;;
34988;SDS011;21192;40.182;44.516;2023-03-19T03:04:55;14.27;;;6.18;;
34988;SDS011;21192;40.182;44.516;2023-03-19T03:07:21;9.88;;;5.40;;
34988;SDS011;21192;40.182;44.516;2023-03-19T03:09:47;15.88;;;7.32;;
34988;SDS011;21192;40.182;44.516;2023-03-19T03:12:12;13.52;;;6.47;;
34988;SDS011;21192;40.182;44.516;2023-03-19T03:14:39;14.35;;;5.82;;
34988;SDS011;21192;40.182;44.516;2023-03-19T03:17:05;14.02;;;5.63;;
34988;SDS011;21192;40.182;44.516;2023-03-19T03:19:32;8.88;;;5.18;;
34988;SDS011;21192;40.182;44.516;2023-03-19T03:21:59;11.02;;;4.93;;
34988;SDS011;21192;40.182;44.516;2023-03-19T03:24:25;11.00;;;5.40;;
34988;SDS011;21192;40.182;44.516;2023-03-19T03:26:51;10.73;;;5.60;;
34988;SDS011;21192;40.182;44.516;2023-03-19T03:29:17;9.27;;;4.30;;
34988;SDS011;21192;40.182;44.516;2023-03-19T03:31:43;9.55;;;4.60;;
34988;SDS011;21192;40.182;44.516;2023-03-19T03:34:09;11.75;;;4.70;;
34988;SDS011;21192;40.182;44.516;2023-03-19T03:36:35;10.88;;;4.90;;
34988;SDS011;21192;40.182;44.516;2023-03-19T03:39:01;13.48;;;5.25;;
34988;SDS011;21192;40.182;44.516;2023-03-19T03:41:28;10.95;;;4.63;;
34988;SDS011;21192;40.182;44.516;2023-03-19T03:43:54;13.25;;;5.15;;
34988;SDS011;21192;40.182;44.516;2023-03-19T03:46:20;8.57;;;4.57;;
34988;SDS011;21192;40.182;44.516;2023-03-19T03:48:46;10.98;;;4.95;;
34988;SDS011;21192;40.182;44.516;2023-03-19T03:51:14;12.18;;;4.70;;
34988;SDS011;21192;40.182;44.516;2023-03-19T03:53:39;12.48;;;4.70;;
34988;SDS011;21192;40.182;44.516;2023-03-19T03:56:06;12.23;;;5.45;;
34988;SDS011;21192;40.182;44.516;2023-03-19T03:58:32;11.88;;;4.43;;
34988;SDS011;21192;40.182;44.516;2023-03-19T04:00:58;11.32;;;4.60;;
34988;SDS011;21192;40.182;44.516;2023-03-19T04:03:23;11.95;;;5.25;;
34988;SDS011;21192;40.182;44.516;2023-03-19T04:05:50;17.38;;;5.60;;
34988;SDS011;21192;40.182;44.516;2023-03-19T04:08:16;12.27;;;5.65;;
34988;SDS011;21192;40.182;44.516;2023-03-19T04:10:42;14.40;;;5.35;;
34988;SDS011;21192;40.182;44.516;2023-03-19T04:13:08;13.50;;;5.63;;
34988;SDS011;21192;40.182;44.516;2023-03-19T04:15:35;14.68;;;6.63;;
34988;SDS011;21192;40.182;44.516;2023-03-19T04:18:00;12.45;;;5.03;;
34988;SDS011;21192;40.182;44.516;2023-03-19T04:20:27;12.60;;;5.85;;
34988;SDS011;21192;40.182;44.516;2023-03-19T04:22:53;17.70;;;6.00;;
34988;SDS011;21192;40.182;44.516;2023-03-19T04:25:19;17.77;;;6.30;;
34988;SDS011;21192;40.182;44.516;2023-03-19T04:27:44;13.23;;;5.40;;
34988;SDS011;21192;40.182;44.516;2023-03-19T04:30:11;18.58;;;6.82;;
34988;SDS011;21192;40.182;44.516;2023-03-19T04:32:37;15.20;;;7.70;;
34988;SDS011;21192;40.182;44.516;2023-03-19T04:35:04;15.48;;;6.63;;
34988;SDS011;21192;40.182;44.516;2023-03-19T04:37:30;19.08;;;7.40;;
34988;SDS011;21192;40.182;44.516;2023-03-19T04:39:56;21.27;;;7.43;;
34988;SDS011;21192;40.182;44.516;2023-03-19T04:42:23;14.77;;;7.25;;
34988;SDS011;21192;40.182;44.516;2023-03-19T04:44:50;16.20;;;7.70;;
34988;SDS011;21192;40.182;44.516;2023-03-19T04:47:16;17.63;;;8.73;;
34988;SDS011;21192;40.182;44.516;2023-03-19T04:49:42;17.83;;;8.93;;
34988;SDS011;21192;40.182;44.516;2023-03-19T04:52:08;21.35;;;8.52;;
34988;SDS011;21192;40.182;44.516;2023-03-19T04:54:34;17.27;;;8.60;;
34988;SDS011;21192;40.182;44.516;2023-03-19T04:57:00;19.63;;;9.73;;
34988;SDS011;21192;40.182;44.516;2023-03-19T04:59:26;19.60;;;9.13;;
34988;SDS011;21192;40.182;44.516;2023-03-19T05:01:52;21.75;;;9.35;;
34988;SDS011;21192;40.182;44.516;2023-03-19T05:04:17;20.85;;;8.60;;
34988;SDS011;21192;40.182;44.516;2023-03-19T05:06:43;17.83;;;8.45;;
34988;SDS011;21192;40.182;44.516;2023-03-19T05:09:09;16.02;;;8.23;;
34988;SDS011;21192;40.182;44.516;2023-03-19T05:11:35;14.20;;;7.72;;
34988;SDS011;21192;40.182;44.516;2023-03-19T05:14:01;24.05;;;10.35;;
34988;SDS011;21192;40.182;44.516;2023-03-19T05:16:27;18.70;;;8.63;;
34988;SDS011;21192;40.182;44.516;2023-03-19T05:18:53;21.23;;;7.72;;
34988;SDS011;21192;40.182;44.516;2023-03-19T05:21:19;19.92;;;8.05;;
34988;SDS011;21192;40.182;44.516;2023-03-19T05:23:45;16.63;;;7.80;;
34988;SDS011;21192;40.182;44.516;2023-03-19T05:26:11;17.33;;;7.53;;
34988;SDS011;21192;40.182;44.516;2023-03-19T05:28:37;20.08;;;9.45;;
34988;SDS011;21192;40.182;44.516;2023-03-19T05:31:04;23.77;;;10.95;;
34988;SDS011;21192;40.182;44.516;2023-03-19T05:33:29;21.27;;;10.80;;
34988;SDS011;21192;40.182;44.516;2023-03-19T05:35:56;22.67;;;10.93;;
34988;SDS011;21192;40.182;44.516;2023-03-19T05:38:22;31.40;;;11.50;;
34988;SDS011;21192;40.182;44.516;2023-03-19T05:40:48;21.20;;;10.30;;
34988;SDS011;21192;40.182;44.516;2023-03-19T05:43:14;23.10;;;10.93;;
34988;SDS011;21192;40.182;44.516;2023-03-19T05:45:39;22.77;;;10.10;;
34988;SDS011;21192;40.182;44.516;2023-03-19T05:48:06;25.15;;;10.80;;
34988;SDS011;21192;40.182;44.516;2023-03-19T05:50:33;23.90;;;9.88;;
34988;SDS011;21192;40.182;44.516;2023-03-19T05:52:59;25.15;;;10.30;;
34988;SDS011;21192;40.182;44.516;2023-03-19T05:55:24;26.50;;;10.52;;
34988;SDS011;21192;40.182;44.516;2023-03-19T05:57:50;23.48;;;10.82;;
34988;SDS011;21192;40.182;44.516;2023-03-19T06:00:17;24.08;;;10.93;;
34988;SDS011;21192;40.182;44.516;2023-03-19T06:02:43;26.85;;;10.85;;
34988;SDS011;21192;40.182;44.516;2023-03-19T06:05:09;20.52;;;10.82;;
34988;SDS011;21192;40.182;44.516;2023-03-19T06:07:36;25.15;;;11.07;;
34988;SDS011;21192;40.182;44.516;2023-03-19T06:10:02;25.02;;;11.57;;
34988;SDS011;21192;40.182;44.516;2023-03-19T06:12:28;24.33;;;12.07;;
34988;SDS011;21192;40.182;44.516;2023-03-19T06:14:55;26.15;;;12.60;;
34988;SDS011;21192;40.182;44.516;2023-03-19T06:17:21;21.33;;;11.40;;
34988;SDS011;21192;40.182;44.516;2023-03-19T06:19:47;25.38;;;11.50;;
34988;SDS011;21192;40.182;44.516;2023-03-19T06:22:12;19.55;;;11.07;;
34988;SDS011;21192;40.182;44.516;2023-03-19T06:24:38;19.02;;;10.38;;
34988;SDS011;21192;40.182;44.516;2023-03-19T06:27:04;21.52;;;10.52;;
34988;SDS011;21192;40.182;44.516;2023-03-19T06:29:30;22.92;;;10.13;;
34988;SDS011;21192;40.182;44.516;2023-03-19T06:31:56;19.23;;;9.00;;
34988;SDS011;21192;40.182;44.516;2023-03-19T06:34:22;30.77;;;9.52;;
34988;SDS011;21192;40.182;44.516;2023-03-19T06:36:48;22.35;;;9.48;;
34988;SDS011;21192;40.182;44.516;2023-03-19T06:39:14;20.73;;;9.77;;
34988;SDS011;21192;40.182;44.516;2023-03-19T06:41:39;28.08;;;8.65;;
34988;SDS011;21192;40.182;44.516;2023-03-19T06:44:06;21.10;;;8.10;;
34988;SDS011;21192;40.182;44.516;2023-03-19T06:46:31;20.38;;;7.63;;
34988;SDS011;21192;40.182;44.516;2023-03-19T06:48:57;22.23;;;7.72;;
34988;SDS011;21192;40.182;44.516;2023-03-19T06:51:23;28.95;;;8.05;;
34988;SDS011;21192;40.182;44.516;2023-03-19T06:53:52;22.27;;;6.75;;
34988;SDS011;21192;40.182;44.516;2023-03-19T06:56:17;18.40;;;6.97;;
34988;SDS011;21192;40.182;44.516;2023-03-19T06:58:43;17.17;;;6.88;;
34988;SDS011;21192;40.182;44.516;2023-03-19T07:01:09;24.67;;;7.78;;
34988;SDS011;21192;40.182;44.516;2023-03-19T07:03:35;23.60;;;8.57;;
34988;SDS011;21192;40.182;44.516;2023-03-19T07:06:01;25.25;;;8.63;;
34988;SDS011;21192;40.182;44.516;2023-03-19T07:08:27;31.73;;;9.20;;
34988;SDS011;21192;40.182;44.516;2023-03-19T07:11:01;22.73;;;9.13;;
34988;SDS011;21192;40.182;44.516;2023-03-19T07:13:29;27.27;;;8.32;;
34988;SDS011;21192;40.182;44.516;2023-03-19T07:15:55;28.80;;;8.45;;
34988;SDS011;21192;40.182;44.516;2023-03-19T07:18:21;20.70;;;8.70;;
34988;SDS011;21192;40.182;44.516;2023-03-19T07:20:47;22.95;;;8.80;;
34988;SDS011;21192;40.182;44.516;2023-03-19T07:23:13;26.45;;;9.88;;
34988;SDS011;21192;40.182;44.516;2023-03-19T07:25:38;23.88;;;8.63;;
34988;SDS011;21192;40.182;44.516;2023-03-19T07:28:04;21.88;;;8.80;;
34988;SDS011;21192;40.182;44.516;2023-03-19T07:30:30;21.85;;;9.35;;
34988;SDS011;21192;40.182;44.516;2023-03-19T07:32:56;30.45;;;9.65;;
34988;SDS011;21192;40.182;44.516;2023-03-19T07:35:22;30.33;;;10.90;;
34988;SDS011;21192;40.182;44.516;2023-03-19T07:37:48;25.17;;;9.32;;
34988;SDS011;21192;40.182;44.516;2023-03-19T07:40:14;26.83;;;10.02;;
34988;SDS011;21192;40.182;44.516;2023-03-19T07:42:40;23.42;;;9.73;;
34988;SDS011;21192;40.182;44.516;2023-03-19T07:45:06;20.17;;;10.10;;
34988;SDS011;21192;40.182;44.516;2023-03-19T07:47:33;29.80;;;11.25;;
34988;SDS011;21192;40.182;44.516;2023-03-19T07:49:59;24.92;;;10.07;;
34988;SDS011;21192;40.182;44.516;2023-03-19T07:52:25;26.77;;;11.20;;
34988;SDS011;21192;40.182;44.516;2023-03-19T07:54:51;27.88;;;11.23;;
34988;SDS011;21192;40.182;44.516;2023-03-19T07:57:17;28.30;;;11.60;;
34988;SDS011;21192;40.182;44.516;2023-03-19T07:59:44;33.85;;;11.48;;
34988;SDS011;21192;40.182;44.516;2023-03-19T08:02:10;35.10;;;12.30;;
34988;SDS011;21192;40.182;44.516;2023-03-19T08:04:37;22.25;;;10.65;;
34988;SDS011;21192;40.182;44.516;2023-03-19T08:07:03;28.45;;;10.88;;
34988;SDS011;21192;40.182;44.516;2023-03-19T08:09:30;30.98;;;11.80;;
34988;SDS011;21192;40.182;44.516;2023-03-19T08:11:56;21.88;;;11.57;;
34988;SDS011;21192;40.182;44.516;2023-03-19T08:14:22;31.75;;;11.13;;
34988;SDS011;21192;40.182;44.516;2023-03-19T08:16:48;27.95;;;12.18;;
34988;SDS011;21192;40.182;44.516;2023-03-19T08:19:14;33.05;;;14.35;;
34988;SDS011;21192;40.182;44.516;2023-03-19T08:21:41;36.90;;;14.55;;
34988;SDS011;21192;40.182;44.516;2023-03-19T08:24:07;36.00;;;16.45;;
34988;SDS011;21192;40.182;44.516;2023-03-19T08:26:33;39.25;;;16.60;;
34988;SDS011;21192;40.182;44.516;2023-03-19T08:28:59;40.03;;;18.00;;
34988;SDS011;21192;40.182;44.516;2023-03-19T08:31:25;39.13;;;16.80;;
34988;SDS011;21192;40.182;44.516;2023-03-19T08:33:51;39.33;;;19.92;;
34988;SDS011;21192;40.182;44.516;2023-03-19T08:36:17;39.38;;;19.15;;
34988;SDS011;21192;40.182;44.516;2023-03-19T08:38:43;42.00;;;20.00;;
34988;SDS011;21192;40.182;44.516;2023-03-19T08:41:09;38.78;;;19.83;;
34988;SDS011;21192;40.182;44.516;2023-03-19T08:43:35;40.88;;;19.23;;
34988;SDS011;21192;40.182;44.516;2023-03-19T08:46:02;41.65;;;20.00;;
34988;SDS011;21192;40.182;44.516;2023-03-19T08:48:29;38.70;;;20.42;;
34988;SDS011;21192;40.182;44.516;2023-03-19T08:50:56;38.67;;;20.88;;
34988;SDS011;21192;40.182;44.516;2023-03-19T08:53:23;40.00;;;21.98;;
34988;SDS011;21192;40.182;44.516;2023-03-19T08:55:53;41.25;;;21.83;;
34988;SDS011;21192;40.182;44.516;2023-03-19T08:58:21;48.17;;;24.60;;
34988;SDS011;21192;40.182;44.516;2023-03-19T09:00:48;49.53;;;25.83;;
34988;SDS011;21192;40.182;44.516;2023-03-19T09:03:15;48.17;;;24.27;;
34988;SDS011;21192;40.182;44.516;2023-03-19T09:05:42;53.17;;;25.70;;
34988;SDS011;21192;40.182;44.516;2023-03-19T09:08:08;57.60;;;29.58;;
34988;SDS011;21192;40.182;44.516;2023-03-19T09:10:34;58.72;;;29.70;;
34988;SDS011;21192;40.182;44.516;2023-03-19T09:13:01;51.80;;;27.17;;
34988;SDS011;21192;40.182;44.516;2023-03-19T09:15:27;47.80;;;25.95;;
34988;SDS011;21192;40.182;44.516;2023-03-19T09:17:53;56.75;;;25.58;;
34988;SDS011;21192;40.182;44.516;2023-03-19T09:20:19;49.25;;;24.85;;
34988;SDS011;21192;40.182;44.516;2023-03-19T09:22:45;51.22;;;27.05;;
34988;SDS011;21192;40.182;44.516;2023-03-19T09:25:11;64.35;;;29.65;;
34988;SDS011;21192;40.182;44.516;2023-03-19T09:27:37;51.75;;;26.60;;
34988;SDS011;21192;40.182;44.516;2023-03-19T09:30:04;46.90;;;26.35;;
34988;SDS011;21192;40.182;44.516;2023-03-19T09:32:33;40.08;;;22.60;;
34988;SDS011;21192;40.182;44.516;2023-03-19T09:35:00;37.97;;;21.00;;
34988;SDS011;21192;40.182;44.516;2023-03-19T09:37:26;44.35;;;23.75;;
34988;SDS011;21192;40.182;44.516;2023-03-19T09:39:52;40.00;;;22.92;;
34988;SDS011;21192;40.182;44.516;2023-03-19T09:45:15;37.47;;;20.08;;
34988;SDS011;21192;40.182;44.516;2023-03-19T09:47:44;37.95;;;19.42;;
34988;SDS011;21192;40.182;44.516;2023-03-19T09:50:15;29.48;;;16.48;;
34988;SDS011;21192;40.182;44.516;2023-03-19T09:52:48;29.23;;;16.10;;
34988;SDS011;21192;40.182;44.516;2023-03-19T09:55:43;29.33;;;15.50;;
34988;SDS011;21192;40.182;44.516;2023-03-19T10:00:57;28.60;;;16.00;;
34988;SDS011;21192;40.182;44.516;2023-03-19T10:06:10;25.70;;;15.23;;
34988;SDS011;21192;40.182;44.516;2023-03-19T10:11:46;27.88;;;15.60;;
34988;SDS011;21192;40.182;44.516;2023-03-19T10:17:17;27.98;;;17.10;;
34988;SDS011;21192;40.182;44.516;2023-03-19T10:19:49;25.38;;;16.13;;
34988;SDS011;21192;40.182;44.516;2023-03-19T10:22:24;23.75;;;14.90;;
34988;SDS011;21192;40.182;44.516;2023-03-19T10:25:19;27.95;;;17.67;;
34988;SDS011;21192;40.182;44.516;2023-03-19T10:27:51;31.45;;;16.88;;
34988;SDS011;21192;40.182;44.516;2023-03-19T10:30:29;30.02;;;18.88;;
34988;SDS011;21192;40.182;44.516;2023-03-19T10:38:44;29.10;;;19.20;;
34988;SDS011;21192;40.182;44.516;2023-03-19T10:43:59;39.35;;;19.33;;
34988;SDS011;21192;40.182;44.516;2023-03-19T10:46:35;22.95;;;13.20;;
34988;SDS011;21192;40.182;44.516;2023-03-19T10:49:10;22.58;;;11.40;;
34988;SDS011;21192;40.182;44.516;2023-03-19T10:51:37;24.27;;;14.23;;
34988;SDS011;21192;40.182;44.516;2023-03-19T10:54:16;26.45;;;14.77;;
34988;SDS011;21192;40.182;44.516;2023-03-19T10:56:48;23.92;;;11.30;;
34988;SDS011;21192;40.182;44.516;2023-03-19T10:59:35;20.30;;;11.48;;
34988;SDS011;21192;40.182;44.516;2023-03-19T11:02:15;22.60;;;11.55;;
34988;SDS011;21192;40.182;44.516;2023-03-19T11:04:43;21.33;;;13.45;;
34988;SDS011;21192;40.182;44.516;2023-03-19T11:07:11;22.05;;;11.15;;
34988;SDS011;21192;40.182;44.516;2023-03-19T11:09:49;18.17;;;11.20;;
34988;SDS011;21192;40.182;44.516;2023-03-19T11:12:20;23.77;;;11.65;;
34988;SDS011;21192;40.182;44.516;2023-03-19T11:14:55;22.05;;;15.02;;
34988;SDS011;21192;40.182;44.516;2023-03-19T11:22:27;26.48;;;16.25;;
34988;SDS011;21192;40.182;44.516;2023-03-19T11:25:16;32.10;;;16.33;;
34988;SDS011;21192;40.182;44.516;2023-03-19T11:27:43;24.00;;;14.60;;
34988;SDS011;21192;40.182;44.516;2023-03-19T11:30:21;24.10;;;14.82;;
34988;SDS011;21192;40.182;44.516;2023-03-19T11:35:32;19.95;;;14.00;;
34988;SDS011;21192;40.182;44.516;2023-03-19T11:38:05;21.55;;;14.10;;
34988;SDS011;21192;40.182;44.516;2023-03-19T11:40:43;23.70;;;15.10;;
34988;SDS011;21192;40.182;44.516;2023-03-19T11:53:57;18.88;;;12.18;;
34988;SDS011;21192;40.182;44.516;2023-03-19T11:56:47;17.90;;;11.45;;
34988;SDS011;21192;40.182;44.516;2023-03-19T12:07:55;35.58;;;20.50;;
34988;SDS011;21192;40.182;44.516;2023-03-19T12:13:20;24.60;;;16.25;;
34988;SDS011;21192;40.182;44.516;2023-03-19T12:16:07;23.75;;;15.85;;
34988;SDS011;21192;40.182;44.516;2023-03-19T12:29:19;23.45;;;16.88;;
34988;SDS011;21192;40.182;44.516;2023-03-19T12:34:45;30.05;;;20.75;;
34988;SDS011;21192;40.182;44.516;2023-03-19T12:39:53;25.13;;;18.23;;
34988;SDS011;21192;40.182;44.516;2023-03-19T12:42:33;24.73;;;16.58;;
34988;SDS011;21192;40.182;44.516;2023-03-19T12:47:58;35.75;;;23.52;;
34988;SDS011;21192;40.182;44.516;2023-03-19T12:50:28;31.10;;;20.33;;
34988;SDS011;21192;40.182;44.516;2023-03-19T12:52:58;26.77;;;18.83;;
34988;SDS011;21192;40.182;44.516;2023-03-19T12:58:23;24.38;;;17.05;;
34988;SDS011;21192;40.182;44.516;2023-03-19T13:01:12;26.60;;;17.75;;
34988;SDS011;21192;40.182;44.516;2023-03-19T13:06:35;29.60;;;19.20;;
34988;SDS011;21192;40.182;44.516;2023-03-19T13:15:01;30.55;;;20.80;;
34988;SDS011;21192;40.182;44.516;2023-03-19T13:23:08;38.67;;;24.30;;
34988;SDS011;21192;40.182;44.516;2023-03-19T13:25:41;32.95;;;22.83;;
34988;SDS011;21192;40.182;44.516;2023-03-19T13:28:17;33.60;;;23.60;;
34988;SDS011;21192;40.182;44.516;2023-03-19T13:33:34;33.65;;;21.92;;
34988;SDS011;21192;40.182;44.516;2023-03-19T13:36:04;26.17;;;18.42;;
34988;SDS011;21192;40.182;44.516;2023-03-19T13:38:36;24.58;;;17.65;;
34988;SDS011;21192;40.182;44.516;2023-03-19T13:41:04;25.58;;;19.05;;
34988;SDS011;21192;40.182;44.516;2023-03-19T13:43:51;35.53;;;22.20;;
34988;SDS011;21192;40.182;44.516;2023-03-19T13:59:31;23.95;;;16.88;;
34988;SDS011;21192;40.182;44.516;2023-03-19T14:02:47;25.85;;;16.02;;
34988;SDS011;21192;40.182;44.516;2023-03-19T14:05:01;23.38;;;15.85;;
34988;SDS011;21192;40.182;44.516;2023-03-19T14:07:35;33.50;;;17.83;;
34988;SDS011;21192;40.182;44.516;2023-03-19T14:10:12;33.20;;;19.90;;
34988;SDS011;21192;40.182;44.516;2023-03-19T14:12:45;27.60;;;17.13;;
34988;SDS011;21192;40.182;44.516;2023-03-19T14:15:14;27.35;;;17.45;;
34988;SDS011;21192;40.182;44.516;2023-03-19T14:25:24;32.83;;;20.90;;
34988;SDS011;21192;40.182;44.516;2023-03-19T14:27:59;26.27;;;17.45;;
34988;SDS011;21192;40.182;44.516;2023-03-19T14:30:36;30.65;;;19.38;;
34988;SDS011;21192;40.182;44.516;2023-03-19T14:33:13;26.17;;;19.25;;
34988;SDS011;21192;40.182;44.516;2023-03-19T14:35:53;38.72;;;24.98;;
34988;SDS011;21192;40.182;44.516;2023-03-19T14:40:56;34.35;;;25.52;;
34988;SDS011;21192;40.182;44.516;2023-03-19T14:46:22;34.70;;;23.55;;
34988;SDS011;21192;40.182;44.516;2023-03-19T14:51:49;37.13;;;25.20;;
34988;SDS011;21192;40.182;44.516;2023-03-19T14:57:05;31.42;;;22.92;;
34988;SDS011;21192;40.182;44.516;2023-03-19T14:59:52;37.08;;;24.30;;
34988;SDS011;21192;40.182;44.516;2023-03-19T15:02:35;39.97;;;28.70;;
34988;SDS011;21192;40.182;44.516;2023-03-19T15:07:41;43.60;;;28.35;;
34988;SDS011;21192;40.182;44.516;2023-03-19T15:10:16;39.03;;;26.42;;
34988;SDS011;21192;40.182;44.516;2023-03-19T15:18:08;46.97;;;30.48;;
34988;SDS011;21192;40.182;44.516;2023-03-19T15:20:41;39.53;;;28.20;;
34988;SDS011;21192;40.182;44.516;2023-03-19T15:23:10;46.72;;;30.50;;
34988;SDS011;21192;40.182;44.516;2023-03-19T15:26:11;51.35;;;32.17;;
34988;SDS011;21192;40.182;44.516;2023-03-19T15:28:42;49.15;;;30.90;;
34988;SDS011;21192;40.182;44.516;2023-03-19T15:31:12;49.33;;;32.92;;
34988;SDS011;21192;40.182;44.516;2023-03-19T15:33:39;62.63;;;38.17;;
34988;SDS011;21192;40.182;44.516;2023-03-19T15:38:34;53.92;;;35.60;;
34988;SDS011;21192;40.182;44.516;2023-03-19T15:41:04;54.80;;;37.22;;
34988;SDS011;21192;40.182;44.516;2023-03-19T15:43:33;46.10;;;32.38;;
34988;SDS011;21192;40.182;44.516;2023-03-19T15:46:03;44.63;;;32.60;;
34988;SDS011;21192;40.182;44.516;2023-03-19T15:48:40;50.88;;;33.60;;
34988;SDS011;21192;40.182;44.516;2023-03-19T15:51:13;43.72;;;33.15;;
34988;SDS011;21192;40.182;44.516;2023-03-19T15:53:41;46.10;;;32.22;;
34988;SDS011;21192;40.182;44.516;2023-03-19T15:56:07;51.42;;;34.63;;
34988;SDS011;21192;40.182;44.516;2023-03-19T15:58:40;54.15;;;37.17;;
34988;SDS011;21192;40.182;44.516;2023-03-19T16:01:11;50.67;;;36.78;;
34988;SDS011;21192;40.182;44.516;2023-03-19T16:03:50;44.72;;;32.55;;
34988;SDS011;21192;40.182;44.516;2023-03-19T16:06:22;51.00;;;36.83;;
34988;SDS011;21192;40.182;44.516;2023-03-19T16:08:52;54.45;;;35.42;;
34988;SDS011;21192;40.182;44.516;2023-03-19T16:14:08;48.42;;;32.58;;
34988;SDS011;21192;40.182;44.516;2023-03-19T16:16:44;59.80;;;38.95;;
34988;SDS011;21192;40.182;44.516;2023-03-19T16:22:24;48.05;;;31.73;;
34988;SDS011;21192;40.182;44.516;2023-03-19T16:24:54;47.28;;;32.40;;
34988;SDS011;21192;40.182;44.516;2023-03-19T16:27:24;48.42;;;33.75;;
34988;SDS011;21192;40.182;44.516;2023-03-19T16:30:00;47.10;;;33.05;;
34988;SDS011;21192;40.182;44.516;2023-03-19T16:32:28;53.88;;;37.65;;
34988;SDS011;21192;40.182;44.516;2023-03-19T16:35:05;56.38;;;37.28;;
34988;SDS011;21192;40.182;44.516;2023-03-19T16:37:51;75.05;;;47.88;;
34988;SDS011;21192;40.182;44.516;2023-03-19T16:42:47;60.53;;;39.80;;
34988;SDS011;21192;40.182;44.516;2023-03-19T16:47:54;53.47;;;33.63;;
34988;SDS011;21192;40.182;44.516;2023-03-19T16:50:38;48.72;;;32.15;;
34988;SDS011;21192;40.182;44.516;2023-03-19T16:53:09;50.53;;;32.90;;
34988;SDS011;21192;40.182;44.516;2023-03-19T16:55:46;45.47;;;33.40;;
34988;SDS011;21192;40.182;44.516;2023-03-19T16:58:16;50.75;;;35.03;;